Weather at Servei Generals Del Circuit De Catalunya Heliport

Public forecast

Using degrees Celsius for public forecast. Weather courtesy of forecast.io.

Closest aviation weather report (METAR) to Servei Generals Del Circuit De Catalunya Heliport

Closest report is Sabadell Airport, 7.5 nm (14.0 km) WSW. Retrieved 2020/09/24 21:30 UTC (21 minutes ago):

LELL 242130Z AUTO 21007KT CAVOK 20/16 Q1010

Closest aviation forecast (TAF) to Servei Generals Del Circuit De Catalunya Heliport

Closest forecast is Sabadell Airport, 7.5 nm (14.0 km) WSW. Retrieved 2020/09/24 15:54 UTC (6 hours ago):

TAF LELL 242046Z 2415/2515 CNL